• Join FlightAware (Why Join?)
  • Login
  • US Flag 
07:21PM EDT


 

Airport Tracker/Info


-or-


 

Live Flight TrackerFlight Track Log ✈ N513SJ ✈ 07-Jul-2013 ✈ MMSL / CSL - KCXL

Flight Track Log - Related Links

Times and Time Zones

All times are in EDT time to prevent confusion due to time zone crossing. See the N513SJ flight status page for this flight to view local times or setup timezone preferences in your user account.

Time Position Orientation Groundspeed Altitude Reporting Facility
EDT Latitude Longitude Course Direction KTS MPH feet Rate Location/Type
03:57PM 32.1693 -115.2032 332° Northwest  Level FlightAware Approximate
03:58PM 32.2207 -115.2359 332° Northwest  Level FlightAware Approximate
03:59PM 32.2721 -115.2687 332° Northwest  Level FlightAware Approximate
04:00PM 32.3235 -115.3015 332° Northwest  Level FlightAware Approximate
04:01PM 32.3749 -115.3343 332° Northwest  Level FlightAware Approximate
04:02PM 32.4263 -115.3672 332° Northwest  Level FlightAware Approximate
04:03PM 32.4777 -115.4001 332° Northwest  Level FlightAware Approximate
04:04PM 32.5291 -115.4330 332° Northwest  Level FlightAware Approximate
04:05PM 32.5804 -115.4660 332° Northwest  Level FlightAware Approximate
04:06PM 32.6318 -115.4990 332° Northwest  Level FlightAware Approximate
04:07PM 32.6667 -115.5167 320° Northwest  Level FlightAware Approximate
04:08PM 32.6674 -115.5176 320° Northwest  Level Estimated
04:09PM 32.6667 -115.5167 320° Northwest  Level FlightAware Approximate
04:10PM 32.6674 -115.5176 320° Northwest  Level Estimated
04:11PM 32.6667 -115.5167 320° Northwest  Level FlightAware Approximate
04:12PM 32.6674 -115.5176 320° Northwest  Level Estimated
04:13PM 32.6667 -115.5167 320° Northwest  Level FlightAware Approximate
04:14PM 32.6674 -115.5176 320° Northwest  Level Estimated
04:15PM 32.6667 -115.5167 320° Northwest  Level FlightAware Approximate
04:16PM 32.6674 -115.5176 320° Northwest  Level Estimated
04:17PM 32.6667 -115.5167 320° Northwest  Level FlightAware Approximate